createdAt,value
2023-05-19T00:01:17.767Z,10.96
2023-05-19T00:03:55.162Z,10.95
2023-05-19T00:06:24.125Z,10.90
2023-05-19T00:08:56.475Z,10.85
2023-05-19T00:11:26.559Z,10.83
2023-05-19T00:13:54.298Z,10.87
2023-05-19T00:16:22.355Z,10.84
2023-05-19T00:18:49.616Z,10.81
2023-05-19T00:21:16.861Z,10.73
2023-05-19T00:23:44.009Z,10.71
2023-05-19T00:26:11.254Z,10.74
2023-05-19T00:28:39.701Z,10.69
2023-05-19T00:31:06.988Z,10.60
2023-05-19T00:33:34.327Z,10.59
2023-05-19T00:36:03.398Z,10.61
2023-05-19T00:38:31.086Z,10.58
2023-05-19T00:40:58.123Z,10.64
2023-05-19T00:43:25.361Z,10.61
2023-05-19T00:45:53.681Z,10.60
2023-05-19T00:48:21.131Z,10.63
2023-05-19T00:50:48.548Z,10.59
2023-05-19T00:53:18.575Z,10.54
2023-05-19T00:55:46.349Z,10.51
2023-05-19T00:58:14.857Z,10.49
2023-05-19T01:00:42.769Z,10.48
2023-05-19T01:03:11.715Z,10.45
2023-05-19T01:05:41.707Z,10.48
2023-05-19T01:08:09.195Z,10.45
2023-05-19T01:10:36.907Z,10.43
2023-05-19T01:13:05.388Z,10.46
2023-05-19T01:15:36.397Z,10.41
2023-05-19T01:18:11.282Z,10.38
2023-05-19T01:20:46.487Z,10.27
2023-05-19T01:23:27.574Z,10.27
2023-05-19T01:26:26.071Z,10.22
2023-05-19T01:29:23.328Z,10.21
2023-05-19T01:31:55.041Z,10.16
2023-05-19T01:34:23.858Z,10.10
2023-05-19T01:36:52.277Z,10.07
2023-05-19T01:39:20.375Z,10.04
2023-05-19T01:41:48.073Z,10.08
2023-05-19T01:44:16.174Z,10.00
2023-05-19T01:46:43.870Z,10.04
2023-05-19T01:49:13.668Z,9.95
2023-05-19T01:51:41.477Z,9.95
2023-05-19T01:54:08.413Z,9.94
2023-05-19T01:56:45.158Z,10.04
2023-05-19T01:59:23.299Z,9.99
2023-05-19T02:01:54.075Z,10.01
2023-05-19T02:04:31.609Z,9.98
2023-05-19T02:07:03.875Z,9.92
2023-05-19T02:09:52.286Z,9.90
2023-05-19T02:12:23.567Z,9.78
2023-05-19T02:14:58.837Z,9.92
2023-05-19T02:17:29.434Z,9.94
2023-05-19T02:19:57.668Z,9.89
2023-05-19T02:22:24.715Z,9.84
2023-05-19T02:24:51.924Z,9.83
2023-05-19T02:27:18.991Z,9.85
2023-05-19T02:29:46.095Z,9.80
2023-05-19T02:32:13.288Z,9.75
2023-05-19T02:34:42.295Z,9.80
2023-05-19T02:37:10.615Z,9.70
2023-05-19T02:39:37.452Z,9.76
2023-05-19T02:42:04.870Z,9.78
2023-05-19T02:44:31.745Z,9.72
2023-05-19T02:46:58.595Z,9.75
2023-05-19T02:49:25.448Z,9.74
2023-05-19T02:51:53.016Z,9.72
2023-05-19T02:54:21.270Z,9.70
2023-05-19T02:56:48.134Z,9.70
2023-05-19T02:59:15.045Z,9.71
2023-05-19T03:01:42.086Z,9.74
2023-05-19T03:04:09.093Z,9.74
2023-05-19T03:06:36.406Z,9.67
2023-05-19T03:09:03.735Z,9.64
2023-05-19T03:11:32.040Z,9.63
2023-05-19T03:13:58.888Z,9.63
2023-05-19T03:16:25.838Z,9.66
2023-05-19T03:18:53.055Z,9.58
2023-05-19T03:21:19.985Z,9.50
2023-05-19T03:23:47.339Z,9.48
2023-05-19T03:26:14.250Z,9.50
2023-05-19T03:28:42.558Z,9.44
2023-05-19T03:31:09.492Z,9.44
2023-05-19T03:33:36.409Z,9.39
2023-05-19T03:36:04.162Z,9.41
2023-05-19T03:38:31.044Z,9.44
2023-05-19T03:40:57.950Z,9.49
2023-05-19T03:43:24.918Z,9.48
2023-05-19T03:45:53.690Z,9.46
2023-05-19T03:48:21.378Z,9.44
2023-05-19T03:50:48.648Z,9.41
2023-05-19T03:53:15.767Z,9.26
2023-05-19T03:55:42.716Z,9.33
2023-05-19T03:58:10.698Z,9.35
2023-05-19T04:00:38.050Z,9.34
2023-05-19T04:03:06.468Z,9.34
2023-05-19T04:05:33.465Z,9.38
2023-05-19T04:08:00.329Z,9.40
2023-05-19T04:10:27.410Z,9.43
2023-05-19T04:12:54.288Z,9.50
2023-05-19T04:15:21.499Z,9.46
2023-05-19T04:17:48.398Z,9.51
2023-05-19T04:20:16.714Z,9.51
2023-05-19T04:22:43.571Z,9.55
2023-05-19T04:25:10.564Z,9.62
2023-05-19T04:27:38.988Z,9.69
2023-05-19T04:30:06.947Z,9.72
2023-05-19T04:32:33.890Z,9.74
2023-05-19T04:35:00.800Z,9.76
2023-05-19T04:37:30.007Z,9.80
2023-05-19T04:39:57.239Z,9.84
2023-05-19T04:42:26.269Z,9.83
2023-05-19T04:44:53.249Z,9.87
2023-05-19T04:47:21.642Z,9.92
2023-05-19T04:49:48.671Z,10.00
2023-05-19T04:52:15.951Z,10.08
2023-05-19T04:54:44.344Z,10.08
2023-05-19T04:57:11.227Z,10.23
2023-05-19T04:59:38.068Z,10.29
2023-05-19T05:02:05.070Z,10.38
2023-05-19T05:04:32.569Z,10.33
2023-05-19T05:06:59.435Z,10.50
2023-05-19T05:09:26.357Z,10.58
2023-05-19T05:11:55.426Z,10.79
2023-05-19T05:14:22.901Z,10.85
2023-05-19T05:16:50.826Z,10.93
2023-05-19T05:19:18.369Z,10.99
2023-05-19T05:21:45.955Z,11.12
2023-05-19T05:24:13.883Z,11.88
2023-05-19T05:26:41.457Z,13.23
2023-05-19T05:29:10.403Z,14.25
2023-05-19T05:31:37.958Z,15.09
2023-05-19T05:34:04.834Z,15.80
2023-05-19T05:36:31.995Z,16.60
2023-05-19T05:38:59.649Z,17.14
2023-05-19T05:41:27.471Z,17.56
2023-05-19T05:43:54.519Z,18.03
2023-05-19T05:46:22.906Z,18.55
2023-05-19T05:48:50.462Z,18.90
2023-05-19T05:51:17.902Z,18.89
2023-05-19T05:53:48.036Z,18.95
2023-05-19T05:56:15.569Z,19.45
2023-05-19T05:58:42.560Z,19.46
2023-05-19T06:01:11.296Z,19.83
2023-05-19T06:03:41.627Z,20.61
2023-05-19T06:06:08.609Z,20.55
2023-05-19T06:08:35.604Z,20.79
2023-05-19T06:11:08.392Z,21.09
2023-05-19T06:13:36.059Z,20.84
2023-05-19T06:16:03.223Z,21.33
2023-05-19T06:18:30.115Z,20.88
2023-05-19T06:20:58.895Z,20.84
2023-05-19T06:23:27.014Z,21.40
2023-05-19T06:25:53.896Z,21.75
2023-05-19T06:28:21.012Z,21.05
2023-05-19T06:30:48.062Z,21.41
2023-05-19T06:33:14.973Z,21.75
2023-05-19T06:35:41.985Z,21.60
2023-05-19T06:38:10.307Z,22.60
2023-05-19T06:40:37.236Z,21.64
2023-05-19T06:43:04.919Z,21.92
2023-05-19T06:45:31.926Z,21.75
2023-05-19T06:47:58.914Z,21.76
2023-05-19T06:50:26.334Z,22.03
2023-05-19T06:52:53.297Z,22.25
2023-05-19T06:55:21.772Z,21.78
2023-05-19T06:57:48.694Z,22.39
2023-05-19T07:00:18.811Z,22.42
2023-05-19T07:02:47.571Z,22.72
2023-05-19T07:05:14.887Z,22.56
2023-05-19T07:07:42.335Z,21.77
2023-05-19T07:10:10.210Z,22.39
2023-05-19T07:12:38.502Z,22.78
2023-05-19T07:15:06.427Z,22.96
2023-05-19T07:17:33.390Z,23.18
2023-05-19T07:20:01.667Z,22.66
2023-05-19T07:22:28.655Z,23.15
2023-05-19T07:24:57.169Z,23.36
2023-05-19T07:27:24.059Z,22.96
2023-05-19T07:29:52.292Z,22.24
2023-05-19T07:32:19.291Z,22.83
2023-05-19T07:34:46.240Z,22.25
2023-05-19T07:37:13.108Z,21.93
2023-05-19T07:39:40.034Z,22.90
2023-05-19T07:42:06.918Z,22.84
2023-05-19T07:44:34.738Z,23.33
2023-05-19T07:47:03.080Z,23.23
2023-05-19T07:49:30.201Z,23.52
2023-05-19T07:51:57.506Z,23.16
2023-05-19T07:54:24.363Z,23.03
2023-05-19T07:56:51.297Z,24.12
2023-05-19T07:59:18.272Z,23.67
2023-05-19T08:01:45.212Z,23.02
2023-05-19T08:04:14.166Z,22.92
2023-05-19T08:06:42.896Z,23.35
2023-05-19T08:09:09.874Z,22.86
2023-05-19T08:11:37.124Z,23.74
2023-05-19T08:14:04.059Z,23.28
2023-05-19T08:16:31.126Z,23.23
2023-05-19T08:18:58.242Z,23.18
2023-05-19T08:21:26.553Z,22.57
2023-05-19T08:23:53.546Z,22.89
2023-05-19T08:26:21.582Z,22.89
2023-05-19T08:28:48.663Z,23.39
2023-05-19T08:31:15.649Z,23.78
2023-05-19T08:33:42.618Z,22.79
2023-05-19T08:36:09.643Z,22.72
2023-05-19T08:38:37.901Z,23.24
2023-05-19T08:41:05.961Z,23.46
2023-05-19T08:43:33.221Z,23.22
2023-05-19T08:46:00.771Z,23.12
2023-05-19T08:48:29.444Z,22.06
2023-05-19T08:51:06.505Z,22.78
2023-05-19T08:53:40.605Z,23.15
2023-05-19T08:56:12.127Z,22.72
2023-05-19T08:58:40.405Z,22.86
2023-05-19T09:01:07.850Z,22.16
2023-05-19T09:03:39.275Z,22.72
2023-05-19T09:06:08.575Z,22.86
2023-05-19T09:08:37.524Z,23.61
2023-05-19T09:11:06.087Z,23.71
2023-05-19T09:13:33.027Z,22.42
2023-05-19T09:16:00.109Z,23.20
2023-05-19T09:18:27.344Z,22.82
2023-05-19T09:21:00.661Z,22.36
2023-05-19T09:23:29.660Z,22.49
2023-05-19T09:25:57.555Z,23.02
2023-05-19T09:28:28.006Z,23.03
2023-05-19T09:31:00.215Z,22.60
2023-05-19T09:33:27.174Z,22.94
2023-05-19T09:35:54.707Z,22.48
2023-05-19T09:38:21.613Z,22.42
2023-05-19T09:40:48.815Z,22.02
2023-05-19T09:43:16.242Z,23.02
2023-05-19T09:45:44.613Z,22.11
2023-05-19T09:48:11.723Z,22.09
2023-05-19T09:50:38.658Z,22.61
2023-05-19T09:53:05.592Z,23.30
2023-05-19T09:55:33.716Z,22.11
2023-05-19T09:58:05.098Z,21.04
2023-05-19T10:00:33.067Z,22.20
2023-05-19T10:03:05.341Z,22.32
2023-05-19T10:05:33.761Z,22.42
2023-05-19T10:08:02.620Z,21.21
2023-05-19T10:10:31.299Z,21.62
2023-05-19T10:13:00.188Z,20.82
2023-05-19T10:15:27.271Z,21.38
2023-05-19T10:17:55.170Z,22.54
2023-05-19T10:20:23.546Z,22.85
2023-05-19T10:22:50.464Z,22.82
2023-05-19T10:25:19.906Z,23.12
2023-05-19T10:27:52.216Z,22.86
2023-05-19T10:30:26.109Z,22.58
2023-05-19T10:32:54.860Z,22.86
2023-05-19T10:35:59.770Z,22.96
2023-05-19T10:38:33.741Z,21.92
2023-05-19T10:41:09.050Z,23.12
2023-05-19T10:43:55.119Z,23.43
2023-05-19T10:46:25.520Z,23.66
2023-05-19T10:48:52.550Z,22.92
2023-05-19T10:51:20.981Z,22.70
2023-05-19T10:53:49.984Z,21.85
2023-05-19T10:56:31.157Z,22.90
2023-05-19T10:58:58.069Z,23.29
2023-05-19T11:01:31.591Z,23.06
2023-05-19T11:04:04.324Z,23.02
2023-05-19T11:06:34.218Z,23.73
2023-05-19T11:09:02.435Z,23.56
2023-05-19T11:11:45.437Z,23.52
2023-05-19T11:14:15.632Z,23.79
2023-05-19T11:16:43.325Z,22.41
2023-05-19T11:19:20.006Z,22.51
2023-05-19T11:21:52.761Z,23.82
2023-05-19T11:24:40.204Z,24.44
2023-05-19T11:27:31.531Z,24.05
2023-05-19T11:30:00.238Z,23.86
2023-05-19T11:32:28.931Z,23.09
2023-05-19T11:34:56.440Z,22.83
2023-05-19T11:37:24.891Z,23.91
2023-05-19T11:39:52.456Z,24.44
2023-05-19T11:42:19.475Z,24.05
2023-05-19T11:44:47.162Z,23.01
2023-05-19T11:47:14.762Z,23.21
2023-05-19T11:49:44.374Z,24.07
2023-05-19T11:52:11.523Z,24.07
2023-05-19T11:54:41.931Z,23.47
2023-05-19T11:57:10.583Z,23.42
2023-05-19T11:59:39.274Z,22.44
2023-05-19T12:02:17.663Z,24.12
2023-05-19T12:04:45.215Z,23.47
2023-05-19T12:07:20.204Z,22.58
2023-05-19T12:09:49.626Z,22.14
2023-05-19T12:12:18.784Z,22.06
2023-05-19T12:14:46.948Z,23.07
2023-05-19T12:17:21.518Z,22.77
2023-05-19T12:19:49.733Z,22.10
2023-05-19T12:22:18.447Z,23.18
2023-05-19T12:24:49.606Z,22.42
2023-05-19T12:27:20.130Z,23.12
2023-05-19T12:29:50.643Z,23.26
2023-05-19T12:32:17.584Z,23.68
2023-05-19T12:34:44.600Z,22.93
2023-05-19T12:37:11.788Z,23.28
2023-05-19T12:39:40.167Z,23.69
2023-05-19T12:42:09.627Z,23.60
2023-05-19T12:44:42.608Z,22.59
2023-05-19T12:47:09.488Z,23.15
2023-05-19T12:49:36.695Z,23.18
2023-05-19T12:52:07.204Z,23.74
2023-05-19T12:54:37.812Z,23.90
2023-05-19T12:57:06.714Z,23.39
2023-05-19T12:59:38.801Z,23.24
2023-05-19T13:02:07.568Z,23.17
2023-05-19T13:04:34.670Z,22.79
2023-05-19T13:07:01.831Z,23.39
2023-05-19T13:09:29.074Z,23.58
2023-05-19T13:11:56.079Z,23.23
2023-05-19T13:14:22.994Z,24.29
2023-05-19T13:16:49.912Z,23.32
2023-05-19T13:19:24.970Z,23.04
2023-05-19T13:21:52.590Z,22.90
2023-05-19T13:24:19.521Z,23.02
2023-05-19T13:26:46.530Z,22.59
2023-05-19T13:29:13.580Z,23.21
2023-05-19T13:31:40.724Z,23.12
2023-05-19T13:34:08.014Z,23.27
2023-05-19T13:36:36.599Z,22.43
2023-05-19T13:39:03.656Z,22.61
2023-05-19T13:41:30.555Z,23.56
2023-05-19T13:43:59.582Z,22.52
2023-05-19T13:46:40.895Z,22.98
2023-05-19T13:49:12.071Z,23.09
2023-05-19T13:51:42.862Z,22.98
2023-05-19T13:54:10.064Z,22.86
2023-05-19T13:56:37.018Z,23.56
2023-05-19T13:59:04.221Z,23.60
2023-05-19T14:01:31.301Z,23.13
2023-05-19T14:03:58.465Z,23.45
2023-05-19T14:06:25.466Z,23.37
2023-05-19T14:08:53.700Z,23.15
2023-05-19T14:11:21.683Z,23.02
2023-05-19T14:13:53.063Z,23.10
2023-05-19T14:16:22.100Z,23.40
2023-05-19T14:18:49.383Z,21.96
2023-05-19T14:21:16.378Z,22.15
2023-05-19T14:23:43.325Z,22.87
2023-05-19T14:26:11.684Z,23.03
2023-05-19T14:28:38.588Z,22.76
2023-05-19T14:31:06.295Z,22.90
2023-05-19T14:33:35.656Z,22.54
2023-05-19T14:36:02.936Z,22.94
2023-05-19T14:38:29.914Z,22.68
2023-05-19T14:40:56.913Z,23.11
2023-05-19T14:43:25.262Z,23.07
2023-05-19T14:45:52.219Z,22.82
2023-05-19T14:48:19.146Z,22.13
2023-05-19T14:50:48.337Z,22.30
2023-05-19T14:53:15.532Z,22.10
2023-05-19T14:55:42.455Z,22.08
2023-05-19T14:58:19.985Z,21.82
2023-05-19T15:00:57.831Z,22.10
2023-05-19T15:03:25.014Z,22.39
2023-05-19T15:05:52.149Z,21.84
2023-05-19T15:08:19.109Z,22.10
2023-05-19T15:10:48.772Z,22.47
2023-05-19T15:13:16.183Z,21.72
2023-05-19T15:15:43.078Z,21.66
2023-05-19T15:18:16.304Z,22.01
2023-05-19T15:20:43.950Z,21.60
2023-05-19T15:23:11.067Z,21.27
2023-05-19T15:25:38.068Z,21.38
2023-05-19T15:28:05.170Z,21.92
2023-05-19T15:30:32.064Z,21.66
2023-05-19T15:32:59.044Z,21.29
2023-05-19T15:35:27.647Z,21.83
2023-05-19T15:37:54.531Z,21.88
2023-05-19T15:40:21.495Z,21.77
2023-05-19T15:42:48.404Z,21.44
2023-05-19T15:45:15.295Z,20.96
2023-05-19T15:47:42.281Z,21.26
2023-05-19T15:50:10.010Z,21.31
2023-05-19T15:52:38.285Z,21.67
2023-05-19T15:55:06.166Z,21.31
2023-05-19T15:57:33.079Z,21.24
2023-05-19T16:00:00.041Z,21.14
2023-05-19T16:02:27.128Z,21.46
2023-05-19T16:04:54.163Z,20.80
2023-05-19T16:07:22.586Z,20.79
2023-05-19T16:09:51.071Z,20.81
2023-05-19T16:12:18.106Z,20.77
2023-05-19T16:14:44.987Z,21.41
2023-05-19T16:17:13.753Z,21.36
2023-05-19T16:19:40.747Z,21.27
2023-05-19T16:22:07.707Z,21.14
2023-05-19T16:24:34.649Z,20.64
2023-05-19T16:27:03.033Z,20.59
2023-05-19T16:29:29.839Z,21.04
2023-05-19T16:31:56.741Z,20.61
2023-05-19T16:34:23.850Z,20.09
2023-05-19T16:36:50.785Z,20.48
2023-05-19T16:39:17.682Z,20.65
2023-05-19T16:41:44.673Z,20.52
2023-05-19T16:44:14.688Z,20.56
2023-05-19T16:46:41.694Z,20.57
2023-05-19T16:49:09.078Z,20.55
2023-05-19T16:51:35.952Z,20.76
2023-05-19T16:54:02.911Z,20.45
2023-05-19T16:56:44.810Z,20.29
2023-05-19T16:59:13.152Z,20.30
2023-05-19T17:01:40.059Z,20.58
2023-05-19T17:04:06.961Z,20.36
2023-05-19T17:06:33.936Z,20.38
2023-05-19T17:09:00.901Z,19.96
2023-05-19T17:11:28.090Z,19.99
2023-05-19T17:13:54.991Z,19.84
2023-05-19T17:16:23.901Z,20.04
2023-05-19T17:18:51.464Z,20.43
2023-05-19T17:21:18.520Z,19.92
2023-05-19T17:23:45.642Z,19.87
2023-05-19T17:26:12.548Z,19.85
2023-05-19T17:28:39.478Z,20.00
2023-05-19T17:31:10.130Z,19.98
2023-05-19T17:33:38.504Z,20.00
2023-05-19T17:36:06.605Z,19.60
2023-05-19T17:38:33.536Z,19.79
2023-05-19T17:41:00.997Z,19.99
2023-05-19T17:43:28.370Z,19.72
2023-05-19T17:45:55.351Z,20.14
2023-05-19T17:48:22.307Z,20.18
2023-05-19T17:50:50.600Z,19.88
2023-05-19T17:53:18.181Z,19.78
2023-05-19T17:55:50.368Z,19.80
2023-05-19T17:58:17.838Z,19.93
2023-05-19T18:00:45.862Z,19.79
2023-05-19T18:03:13.414Z,19.82
2023-05-19T18:05:43.345Z,19.56
2023-05-19T18:08:13.605Z,19.74
2023-05-19T18:10:41.884Z,19.06
2023-05-19T18:13:10.538Z,19.58
2023-05-19T18:15:37.661Z,19.36
2023-05-19T18:18:07.484Z,19.08
2023-05-19T18:20:35.043Z,18.79
2023-05-19T18:23:02.902Z,18.85
2023-05-19T18:25:31.283Z,18.95
2023-05-19T18:27:58.156Z,18.68
2023-05-19T18:30:25.074Z,18.55
2023-05-19T18:32:51.989Z,18.79
2023-05-19T18:35:21.142Z,18.69
2023-05-19T18:37:48.020Z,18.51
2023-05-19T18:40:14.916Z,18.56
2023-05-19T18:42:43.241Z,18.42
2023-05-19T18:45:10.683Z,18.69
2023-05-19T18:47:37.665Z,18.24
2023-05-19T18:50:05.419Z,18.46
2023-05-19T18:52:32.437Z,18.22
2023-05-19T18:55:01.150Z,17.88
2023-05-19T18:57:28.071Z,18.11
2023-05-19T18:59:56.392Z,18.04
2023-05-19T19:02:23.302Z,18.11
2023-05-19T19:04:50.263Z,17.86
2023-05-19T19:07:17.248Z,17.76
2023-05-19T19:09:44.117Z,17.86
2023-05-19T19:12:11.259Z,17.60
2023-05-19T19:14:38.732Z,17.73
2023-05-19T19:17:07.245Z,17.32
2023-05-19T19:19:34.229Z,17.39
2023-05-19T19:22:01.187Z,17.39
2023-05-19T19:24:28.573Z,17.34
2023-05-19T19:26:55.564Z,17.39
2023-05-19T19:29:22.455Z,16.95
2023-05-19T19:31:49.385Z,17.09
2023-05-19T19:34:19.872Z,17.09
2023-05-19T19:36:47.928Z,16.76
2023-05-19T19:39:14.875Z,16.94
2023-05-19T19:41:41.909Z,16.98
2023-05-19T19:44:08.915Z,16.83
2023-05-19T19:46:36.008Z,16.95
2023-05-19T19:49:03.001Z,16.55
2023-05-19T19:51:31.773Z,16.70
2023-05-19T19:53:59.152Z,16.59
2023-05-19T19:56:27.589Z,16.77
2023-05-19T19:58:56.924Z,16.48
2023-05-19T20:01:27.606Z,16.60
2023-05-19T20:03:55.461Z,16.38
2023-05-19T20:06:22.584Z,16.44
2023-05-19T20:08:50.883Z,16.52
2023-05-19T20:11:17.833Z,16.34
2023-05-19T20:13:44.960Z,16.37
2023-05-19T20:16:11.896Z,16.38
2023-05-19T20:18:39.607Z,16.38
2023-05-19T20:21:06.619Z,16.18
2023-05-19T20:23:33.717Z,16.25
2023-05-19T20:26:10.980Z,16.25
2023-05-19T20:28:39.380Z,16.15
2023-05-19T20:31:06.515Z,16.18
2023-05-19T20:33:33.517Z,16.08
2023-05-19T20:36:00.493Z,16.16
2023-05-19T20:38:27.421Z,16.06
2023-05-19T20:40:54.387Z,16.03
2023-05-19T20:43:22.733Z,16.05
2023-05-19T20:45:49.738Z,15.98
2023-05-19T20:48:16.795Z,15.97
2023-05-19T20:50:43.980Z,15.81
2023-05-19T20:53:11.018Z,15.84
2023-05-19T20:55:38.680Z,15.87
2023-05-19T20:58:05.786Z,15.81
2023-05-19T21:00:34.200Z,15.72
2023-05-19T21:03:01.579Z,15.63
2023-05-19T21:05:29.083Z,15.38
2023-05-19T21:07:56.464Z,15.59
2023-05-19T21:10:23.605Z,15.50
2023-05-19T21:12:50.535Z,15.59
2023-05-19T21:15:17.519Z,15.48
2023-05-19T21:17:46.652Z,15.46
2023-05-19T21:20:13.688Z,15.38
2023-05-19T21:22:41.044Z,15.32
2023-05-19T21:25:08.638Z,15.37
2023-05-19T21:27:36.387Z,15.36
2023-05-19T21:30:03.710Z,15.35
2023-05-19T21:32:31.021Z,15.32
2023-05-19T21:35:00.008Z,15.38
2023-05-19T21:37:26.948Z,15.33
2023-05-19T21:39:53.927Z,15.21
2023-05-19T21:42:20.826Z,15.18
2023-05-19T21:44:47.707Z,15.06
2023-05-19T21:47:14.842Z,15.07
2023-05-19T21:49:41.769Z,15.04
2023-05-19T21:52:10.427Z,14.92
2023-05-19T21:54:37.453Z,14.91
2023-05-19T21:57:04.772Z,14.82
2023-05-19T21:59:31.649Z,14.82
2023-05-19T22:01:58.899Z,14.81
2023-05-19T22:04:25.940Z,14.70
2023-05-19T22:06:52.799Z,14.60
2023-05-19T22:09:21.694Z,14.47
2023-05-19T22:11:48.545Z,14.41
2023-05-19T22:14:15.645Z,14.43
2023-05-19T22:16:42.593Z,14.40
2023-05-19T22:19:10.564Z,14.37
2023-05-19T22:21:37.597Z,14.27
2023-05-19T22:24:04.707Z,14.30
2023-05-19T22:26:34.395Z,14.27
2023-05-19T22:29:01.782Z,14.31
2023-05-19T22:31:29.712Z,14.20
2023-05-19T22:33:56.684Z,14.17
2023-05-19T22:36:23.833Z,14.20
2023-05-19T22:38:50.693Z,14.09
2023-05-19T22:41:17.604Z,14.03
2023-05-19T22:43:46.007Z,14.05
2023-05-19T22:46:13.111Z,14.07
2023-05-19T22:48:39.969Z,13.92
2023-05-19T22:51:06.854Z,13.94
2023-05-19T22:53:33.704Z,13.87
2023-05-19T22:56:00.575Z,13.81
2023-05-19T22:58:27.437Z,13.78
2023-05-19T23:00:56.228Z,13.76
2023-05-19T23:03:23.320Z,13.79
2023-05-19T23:05:50.254Z,13.80
2023-05-19T23:08:17.109Z,13.74
2023-05-19T23:10:44.769Z,13.73
2023-05-19T23:13:12.035Z,13.81
2023-05-19T23:15:38.902Z,13.74
2023-05-19T23:18:08.692Z,13.79
2023-05-19T23:20:35.807Z,13.73
2023-05-19T23:23:02.780Z,13.68
2023-05-19T23:25:29.759Z,13.64
2023-05-19T23:27:56.656Z,13.57
2023-05-19T23:30:23.563Z,13.59
2023-05-19T23:32:50.493Z,13.59
2023-05-19T23:35:20.086Z,13.49
2023-05-19T23:37:47.033Z,13.53
2023-05-19T23:40:14.435Z,13.57
2023-05-19T23:42:41.395Z,13.55
2023-05-19T23:45:08.991Z,13.47
2023-05-19T23:47:35.968Z,13.45
2023-05-19T23:50:03.019Z,13.40
2023-05-19T23:52:32.804Z,13.40
2023-05-19T23:54:59.789Z,13.42
2023-05-19T23:57:26.633Z,13.36
2023-05-19T23:59:53.505Z,13.39
